Time;durP1;ratioP1;P1;durP2;ratioP2;P2;SDS_P1;SDS_P2;PMS_P1;PMS_P2;Temp;Humidity;BMP_temperature;BMP_pressure;BME280_temperature;BME280_humidity;BME280_pressure;Samples;Min_cycle;Max_cycle;Signal;HPM_P1;HPM_P2
2022/10/30 00:00:14;;;;;;;9.48;8.68;;;;;;;;;;5204975;28;20558;-69
2022/10/30 00:02:47;;;;;;;11.77;9.35;;;;;;;;;;5204892;28;20398;-67
2022/10/30 00:05:19;;;;;;;12.55;8.90;;;;;;;;;;5204499;28;20075;-70
2022/10/30 00:07:50;;;;;;;10.85;9.68;;;;;;;;;;5203383;28;20454;-70
2022/10/30 00:10:20;;;;;;;13.48;9.27;;;;;;;;;;5204631;28;20049;-70
2022/10/30 00:12:51;;;;;;;15.48;10.80;;;;;;;;;;5204637;28;20033;-67
2022/10/30 00:15:21;;;;;;;16.63;10.40;;;;;;;;;;5203355;28;20036;-67
2022/10/30 00:17:52;;;;;;;8.20;7.47;;;;;;;;;;5206017;28;20036;-70
2022/10/30 00:20:22;;;;;;;15.32;8.65;;;;;;;;;;5204362;28;20048;-70
2022/10/30 00:22:52;;;;;;;10.88;9.77;;;;;;;;;;5204450;28;20075;-70
2022/10/30 00:25:22;;;;;;;12.07;8.07;;;;;;;;;;5203795;28;20021;-70
2022/10/30 00:27:53;;;;;;;10.75;8.50;;;;;;;;;;5204338;28;20087;-70
2022/10/30 00:30:23;;;;;;;8.73;8.00;;;;;;;;;;5205453;28;20063;-70
2022/10/30 00:32:53;;;;;;;10.82;8.70;;;;;;;;;;5204093;28;20120;-70
2022/10/30 00:35:23;;;;;;;13.70;9.07;;;;;;;;;;5204160;28;20052;-69
2022/10/30 00:37:54;;;;;;;11.30;8.57;;;;;;;;;;5204226;28;20025;-70
2022/10/30 00:40:24;;;;;;;11.63;9.15;;;;;;;;;;5203965;28;20114;-70
2022/10/30 00:42:55;;;;;;;9.32;8.52;;;;;;;;;;5202798;28;20068;-70
2022/10/30 00:45:25;;;;;;;7.82;7.28;;;;;;;;;;5203798;28;20481;-70
2022/10/30 00:47:58;;;;;;;11.95;9.15;;;;;;;;;;5205402;28;20394;-70
2022/10/30 00:50:35;;;;;;;13.30;9.13;;;;;;;;;;5204087;28;20079;-70
2022/10/30 00:56:08;;;;;;;9.35;8.38;;;;;;;;;;5219567;22;1128572;-82
2022/10/30 00:58:41;;;;;;;11.30;9.88;;;;;;;;;;5235025;28;20031;-82
2022/10/30 01:01:14;;;;;;;20.95;10.13;;;;;;;;;;5237265;28;20090;-82
2022/10/30 01:03:45;;;;;;;13.55;8.50;;;;;;;;;;5237253;28;20047;-82
2022/10/30 01:06:16;;;;;;;8.52;7.97;;;;;;;;;;5237767;28;20021;-82
2022/10/30 01:08:46;;;;;;;11.63;10.45;;;;;;;;;;5238093;28;20028;-81
2022/10/30 01:11:16;;;;;;;14.93;10.63;;;;;;;;;;5237918;28;20059;-82
2022/10/30 01:13:48;;;;;;;10.38;8.82;;;;;;;;;;5237393;28;20025;-82
2022/10/30 01:16:24;;;;;;;10.70;9.73;;;;;;;;;;5238243;28;20017;-83
2022/10/30 01:19:11;;;;;;;16.38;9.65;;;;;;;;;;5239666;28;20018;-82
2022/10/30 01:22:00;;;;;;;10.45;9.38;;;;;;;;;;5238328;28;20021;-82
2022/10/30 01:24:30;;;;;;;10.82;9.80;;;;;;;;;;5237481;28;20044;-84
2022/10/30 01:27:19;;;;;;;9.93;8.80;;;;;;;;;;5238506;28;20044;-82
2022/10/30 01:30:01;;;;;;;12.23;9.35;;;;;;;;;;5239478;28;20498;-82
2022/10/30 01:32:32;;;;;;;9.63;8.40;;;;;;;;;;5221969;28;20021;-81
2022/10/30 01:35:10;;;;;;;10.00;9.00;;;;;;;;;;5219807;28;20071;-82
2022/10/30 01:37:53;;;;;;;10.18;9.32;;;;;;;;;;5220358;28;20271;-82
2022/10/30 01:40:23;;;;;;;8.82;8.18;;;;;;;;;;5238509;28;20493;-82
2022/10/30 01:42:57;;;;;;;12.13;10.05;;;;;;;;;;5239681;28;20025;-82
2022/10/30 01:45:27;;;;;;;10.75;9.38;;;;;;;;;;5221490;28;20028;-83
2022/10/30 01:48:13;;;;;;;13.83;10.00;;;;;;;;;;5225290;28;20013;-82
2022/10/30 01:50:43;;;;;;;9.38;8.65;;;;;;;;;;5231924;28;20291;-82
2022/10/30 01:53:16;;;;;;;10.47;9.60;;;;;;;;;;5249290;28;20005;-82
2022/10/30 01:56:16;;;;;;;11.88;10.85;;;;;;;;;;5247923;28;20354;-82
2022/10/30 01:58:49;;;;;;;11.40;10.45;;;;;;;;;;5206630;28;20025;-82
2022/10/30 02:01:20;;;;;;;10.52;8.02;;;;;;;;;;5218099;28;20029;-82
2022/10/30 02:03:50;;;;;;;11.55;10.52;;;;;;;;;;5234424;28;20025;-81
2022/10/30 02:06:20;;;;;;;9.67;8.67;;;;;;;;;;5234321;28;20021;-81
2022/10/30 02:08:53;;;;;;;8.73;7.88;;;;;;;;;;5235475;28;20266;-81
2022/10/30 02:11:24;;;;;;;9.88;8.98;;;;;;;;;;5236532;28;20024;-83
2022/10/30 02:13:55;;;;;;;14.65;12.63;;;;;;;;;;5216969;28;20025;-82
2022/10/30 02:16:26;;;;;;;12.68;10.98;;;;;;;;;;5236116;28;20055;-85
2022/10/30 02:18:56;;;;;;;11.82;9.23;;;;;;;;;;5235943;28;20037;-82
2022/10/30 02:21:26;;;;;;;12.35;11.00;;;;;;;;;;5219165;28;20016;-82
2022/10/30 02:23:56;;;;;;;11.10;10.30;;;;;;;;;;5236495;28;20055;-84
2022/10/30 02:26:27;;;;;;;10.60;9.55;;;;;;;;;;5230070;28;20048;-81
2022/10/30 02:28:57;;;;;;;14.90;10.03;;;;;;;;;;5237861;28;20032;-82
2022/10/30 02:31:27;;;;;;;10.57;9.68;;;;;;;;;;5217729;28;20267;-82
2022/10/30 02:33:57;;;;;;;11.25;10.23;;;;;;;;;;5217122;28;20031;-81
2022/10/30 02:36:28;;;;;;;17.33;10.93;;;;;;;;;;5218079;28;20021;-80
2022/10/30 02:38:59;;;;;;;11.43;9.82;;;;;;;;;;5236281;28;20059;-81
2022/10/30 02:41:29;;;;;;;8.43;7.80;;;;;;;;;;5218597;28;20043;-84
2022/10/30 02:44:00;;;;;;;15.88;11.43;;;;;;;;;;5217320;28;20028;-83
2022/10/30 02:46:30;;;;;;;15.27;10.05;;;;;;;;;;5218112;28;20427;-83
2022/10/30 02:49:01;;;;;;;10.85;9.10;;;;;;;;;;5240304;28;20048;-83
2022/10/30 02:51:32;;;;;;;13.07;11.05;;;;;;;;;;5221793;28;20044;-84
2022/10/30 02:54:02;;;;;;;18.98;9.02;;;;;;;;;;5238981;28;20086;-84
2022/10/30 02:56:32;;;;;;;10.10;9.32;;;;;;;;;;5222240;28;20021;-84
2022/10/30 02:59:02;;;;;;;11.07;10.30;;;;;;;;;;5222270;28;20021;-83
2022/10/30 03:01:33;;;;;;;14.00;9.53;;;;;;;;;;5222053;28;20017;-83
2022/10/30 03:04:03;;;;;;;11.80;8.80;;;;;;;;;;5220755;28;20263;-80
2022/10/30 03:06:33;;;;;;;9.95;9.30;;;;;;;;;;5239575;28;20071;-82
2022/10/30 03:09:04;;;;;;;10.75;9.43;;;;;;;;;;5240557;28;20454;-88
2022/10/30 03:11:34;;;;;;;9.73;8.85;;;;;;;;;;5239982;28;20226;-81
2022/10/30 03:14:05;;;;;;;14.45;9.23;;;;;;;;;;5221236;28;20021;-82
2022/10/30 03:16:35;;;;;;;14.55;11.63;;;;;;;;;;5237354;28;20028;-82
2022/10/30 03:19:05;;;;;;;11.98;10.65;;;;;;;;;;5236589;28;20021;-83
2022/10/30 03:21:35;;;;;;;8.90;7.55;;;;;;;;;;5236627;28;20098;-81
2022/10/30 03:24:06;;;;;;;10.13;9.18;;;;;;;;;;5216472;28;20150;-84
2022/10/30 03:26:36;;;;;;;8.65;8.10;;;;;;;;;;5218546;28;20078;-83
2022/10/30 03:29:06;;;;;;;14.18;9.00;;;;;;;;;;5236959;28;20017;-83
2022/10/30 03:31:36;;;;;;;10.80;9.15;;;;;;;;;;5235140;28;20028;-84
2022/10/30 03:34:07;;;;;;;15.35;9.93;;;;;;;;;;5235663;28;20028;-82
2022/10/30 03:36:37;;;;;;;9.40;8.52;;;;;;;;;;5236629;28;20028;-81
2022/10/30 03:39:07;;;;;;;16.23;11.90;;;;;;;;;;5236776;28;20025;-83
2022/10/30 03:41:37;;;;;;;9.80;8.75;;;;;;;;;;5236774;28;20366;-81
2022/10/30 03:44:08;;;;;;;9.50;8.57;;;;;;;;;;5235766;28;20040;-84
2022/10/30 03:46:38;;;;;;;10.43;9.40;;;;;;;;;;5237391;28;20255;-83
2022/10/30 03:49:08;;;;;;;11.57;10.43;;;;;;;;;;5237131;28;20067;-82
2022/10/30 03:51:38;;;;;;;11.77;10.57;;;;;;;;;;5218985;28;20649;-84
2022/10/30 03:54:09;;;;;;;16.52;10.20;;;;;;;;;;5235620;28;20800;-84
2022/10/30 03:56:39;;;;;;;10.05;9.15;;;;;;;;;;5218493;28;20547;-84
2022/10/30 03:59:09;;;;;;;14.00;11.87;;;;;;;;;;5217858;28;20041;-83
2022/10/30 04:01:39;;;;;;;10.70;9.27;;;;;;;;;;5218876;28;20272;-83
2022/10/30 04:04:10;;;;;;;13.20;9.63;;;;;;;;;;5218777;28;20313;-83
2022/10/30 04:06:40;;;;;;;11.00;9.70;;;;;;;;;;5237154;28;20267;-84
2022/10/30 04:09:10;;;;;;;11.73;10.68;;;;;;;;;;5219575;28;20024;-84
2022/10/30 04:11:40;;;;;;;12.63;10.83;;;;;;;;;;5218179;28;20021;-84
2022/10/30 04:14:11;;;;;;;10.75;9.43;;;;;;;;;;5217973;28;20653;-84
2022/10/30 04:16:41;;;;;;;10.82;10.02;;;;;;;;;;5219369;28;20017;-84
2022/10/30 04:19:11;;;;;;;10.33;9.27;;;;;;;;;;5238054;28;20045;-84
2022/10/30 04:21:42;;;;;;;17.67;10.38;;;;;;;;;;5236928;28;20267;-83
2022/10/30 04:24:15;;;;;;;12.18;9.57;;;;;;;;;;5219207;28;20025;-85
2022/10/30 04:26:45;;;;;;;9.27;8.52;;;;;;;;;;5236522;28;20025;-84
2022/10/30 04:29:16;;;;;;;10.67;8.90;;;;;;;;;;5237054;28;20021;-85
2022/10/30 04:31:46;;;;;;;9.73;9.03;;;;;;;;;;5237619;28;20265;-85
2022/10/30 04:34:16;;;;;;;16.38;8.32;;;;;;;;;;5218498;28;20365;-85
2022/10/30 04:36:46;;;;;;;10.15;9.15;;;;;;;;;;5236518;28;20013;-85
2022/10/30 04:39:17;;;;;;;9.90;9.07;;;;;;;;;;5236919;28;20113;-85
2022/10/30 04:41:47;;;;;;;13.48;11.18;;;;;;;;;;5219680;28;20105;-85
2022/10/30 04:44:17;;;;;;;11.13;10.18;;;;;;;;;;5219207;28;20432;-85
2022/10/30 04:46:47;;;;;;;27.42;9.40;;;;;;;;;;5239977;28;20049;-85
2022/10/30 04:49:18;;;;;;;12.32;10.15;;;;;;;;;;5227497;28;20112;-85
2022/10/30 04:51:48;;;;;;;16.48;9.70;;;;;;;;;;5236014;28;20442;-84
2022/10/30 04:54:19;;;;;;;13.32;9.95;;;;;;;;;;5233509;28;20033;-85
2022/10/30 04:56:50;;;;;;;19.02;9.93;;;;;;;;;;5235650;28;20415;-85
2022/10/30 04:59:20;;;;;;;10.73;9.63;;;;;;;;;;5217467;28;20037;-84
2022/10/30 05:01:50;;;;;;;11.03;10.03;;;;;;;;;;5235265;28;20267;-84
2022/10/30 05:04:20;;;;;;;8.85;8.10;;;;;;;;;;5236061;28;20259;-85
2022/10/30 05:06:51;;;;;;;10.80;9.55;;;;;;;;;;5218260;28;20108;-85
2022/10/30 05:09:21;;;;;;;10.98;9.80;;;;;;;;;;5235588;28;20048;-83
2022/10/30 05:11:51;;;;;;;10.07;9.15;;;;;;;;;;5235809;28;20016;-83
2022/10/30 05:14:21;;;;;;;10.25;9.45;;;;;;;;;;5235623;28;20035;-83
2022/10/30 05:16:52;;;;;;;12.85;7.80;;;;;;;;;;5236886;28;20063;-83
2022/10/30 05:19:22;;;;;;;10.10;9.07;;;;;;;;;;5235852;28;20024;-84
2022/10/30 05:21:52;;;;;;;20.92;10.48;;;;;;;;;;5235448;28;20032;-84
2022/10/30 05:24:23;;;;;;;17.20;10.80;;;;;;;;;;5217014;28;20052;-84
2022/10/30 05:26:53;;;;;;;11.20;9.75;;;;;;;;;;5236102;28;20017;-85
2022/10/30 05:29:23;;;;;;;14.13;12.63;;;;;;;;;;5235808;28;20072;-84
2022/10/30 05:31:53;;;;;;;14.17;8.47;;;;;;;;;;5236527;28;20013;-84
2022/10/30 05:34:24;;;;;;;12.82;9.15;;;;;;;;;;5236160;28;20386;-84
2022/10/30 05:36:54;;;;;;;12.27;9.47;;;;;;;;;;5218515;28;20028;-84
2022/10/30 05:39:24;;;;;;;11.18;9.68;;;;;;;;;;5218661;28;20308;-84
2022/10/30 05:41:54;;;;;;;11.18;10.10;;;;;;;;;;5219322;28;20021;-85
2022/10/30 05:44:25;;;;;;;11.60;9.32;;;;;;;;;;5218300;28;20036;-84
2022/10/30 05:46:55;;;;;;;12.98;11.93;;;;;;;;;;5237679;28;20041;-84
2022/10/30 05:49:25;;;;;;;9.75;8.85;;;;;;;;;;5237471;28;20009;-84
2022/10/30 05:51:55;;;;;;;9.77;8.45;;;;;;;;;;5237384;28;20495;-84
2022/10/30 05:54:26;;;;;;;10.60;9.33;;;;;;;;;;5236072;28;20017;-85
2022/10/30 05:56:56;;;;;;;12.07;9.75;;;;;;;;;;5237419;28;20263;-84
2022/10/30 05:59:27;;;;;;;8.95;8.00;;;;;;;;;;5218218;28;20025;-84
2022/10/30 06:01:57;;;;;;;10.80;9.82;;;;;;;;;;5235278;28;20045;-85
2022/10/30 06:04:28;;;;;;;14.63;9.73;;;;;;;;;;5234258;28;20021;-83
2022/10/30 06:06:58;;;;;;;17.90;9.23;;;;;;;;;;5216591;28;20025;-84
2022/10/30 06:09:28;;;;;;;12.03;9.50;;;;;;;;;;5234926;28;20483;-84
2022/10/30 06:11:58;;;;;;;9.50;8.40;;;;;;;;;;5216837;28;20295;-84
2022/10/30 06:14:28;;;;;;;11.40;10.15;;;;;;;;;;5216342;28;20367;-84
2022/10/30 06:16:59;;;;;;;10.63;9.70;;;;;;;;;;5234532;28;20035;-84
2022/10/30 06:19:29;;;;;;;9.77;8.85;;;;;;;;;;5227378;28;20092;-84
2022/10/30 06:21:59;;;;;;;10.55;9.25;;;;;;;;;;5236828;28;20355;-84
2022/10/30 06:24:29;;;;;;;10.67;9.93;;;;;;;;;;5238903;28;20021;-85
2022/10/30 06:27:00;;;;;;;10.05;9.25;;;;;;;;;;5240320;28;20255;-84
2022/10/30 06:29:30;;;;;;;18.48;9.55;;;;;;;;;;5221185;28;20084;-85
2022/10/30 06:32:00;;;;;;;15.60;10.13;;;;;;;;;;5239821;28;20076;-84
2022/10/30 06:34:30;;;;;;;13.20;9.75;;;;;;;;;;5239248;28;20290;-84
2022/10/30 06:37:01;;;;;;;9.32;8.63;;;;;;;;;;5239254;28;20096;-84
2022/10/30 06:39:31;;;;;;;11.75;10.75;;;;;;;;;;5239036;28;20020;-84
2022/10/30 06:42:01;;;;;;;12.50;10.32;;;;;;;;;;5221578;28;20128;-83
2022/10/30 06:44:31;;;;;;;11.50;10.40;;;;;;;;;;5238459;28;20013;-84
2022/10/30 06:47:02;;;;;;;10.37;9.37;;;;;;;;;;5238597;28;20021;-82
2022/10/30 06:49:32;;;;;;;16.38;9.77;;;;;;;;;;5239060;28;20275;-82
2022/10/30 06:52:02;;;;;;;11.05;9.98;;;;;;;;;;5239648;28;20433;-82
2022/10/30 06:54:33;;;;;;;12.07;10.88;;;;;;;;;;5239968;22;20037;-71
2022/10/30 06:57:03;;;;;;;20.30;11.35;;;;;;;;;;5198614;28;20021;-74
2022/10/30 06:59:33;;;;;;;16.35;10.80;;;;;;;;;;5207693;28;20104;-71
2022/10/30 07:02:03;;;;;;;22.00;10.25;;;;;;;;;;5189699;28;20282;-71
2022/10/30 07:04:34;;;;;;;13.93;11.80;;;;;;;;;;5206651;28;20025;-72
2022/10/30 07:07:04;;;;;;;11.60;10.48;;;;;;;;;;5190609;28;20060;-71
2022/10/30 07:09:34;;;;;;;12.25;11.35;;;;;;;;;;5207110;28;20026;-71
2022/10/30 07:12:05;;;;;;;18.75;13.02;;;;;;;;;;5207254;28;20021;-71
2022/10/30 07:14:35;;;;;;;13.35;12.02;;;;;;;;;;5207745;28;20500;-70
2022/10/30 07:17:05;;;;;;;14.75;12.93;;;;;;;;;;5208219;28;20018;-71
2022/10/30 07:19:36;;;;;;;13.27;12.02;;;;;;;;;;5190639;28;20017;-71
2022/10/30 07:22:06;;;;;;;17.83;11.93;;;;;;;;;;5206920;28;20075;-73
2022/10/30 07:24:36;;;;;;;12.13;11.02;;;;;;;;;;5210495;28;20020;-71
2022/10/30 07:27:07;;;;;;;13.20;10.57;;;;;;;;;;5228102;28;20209;-73
2022/10/30 07:29:37;;;;;;;15.07;13.35;;;;;;;;;;5210728;28;20551;-72
2022/10/30 07:32:10;;;;;;;13.35;11.98;;;;;;;;;;5210587;28;20025;-71
2022/10/30 07:34:40;;;;;;;13.57;11.30;;;;;;;;;;5209407;28;20024;-71
2022/10/30 07:37:11;;;;;;;12.52;11.27;;;;;;;;;;5210809;28;20025;-70
2022/10/30 07:39:41;;;;;;;14.02;12.63;;;;;;;;;;5210084;28;20017;-70
2022/10/30 07:42:11;;;;;;;20.80;12.35;;;;;;;;;;5210569;28;20012;-71
2022/10/30 07:44:41;;;;;;;16.02;13.23;;;;;;;;;;5209933;28;20028;-71
2022/10/30 07:47:12;;;;;;;15.20;11.35;;;;;;;;;;5208844;28;20465;-71
2022/10/30 07:49:42;;;;;;;16.17;11.05;;;;;;;;;;5209710;28;20032;-71
2022/10/30 07:52:12;;;;;;;14.90;12.48;;;;;;;;;;5228012;28;20125;-71
2022/10/30 07:54:43;;;;;;;17.25;11.43;;;;;;;;;;5209913;28;20179;-71
2022/10/30 07:57:13;;;;;;;12.23;11.10;;;;;;;;;;5210075;28;20024;-71
2022/10/30 07:59:43;;;;;;;13.68;11.07;;;;;;;;;;5227907;28;20020;-71
2022/10/30 08:02:13;;;;;;;24.05;13.18;;;;;;;;;;5209915;28;20032;-70
2022/10/30 08:04:44;;;;;;;16.67;11.15;;;;;;;;;;5209546;28;20119;-70
2022/10/30 08:07:14;;;;;;;17.65;11.25;;;;;;;;;;5209850;28;20389;-70
2022/10/30 08:09:45;;;;;;;16.27;11.95;;;;;;;;;;5226456;28;20079;-70
2022/10/30 08:12:16;;;;;;;13.70;11.68;;;;;;;;;;5209521;28;20086;-71
2022/10/30 08:14:46;;;;;;;12.45;11.20;;;;;;;;;;5209381;28;20028;-71
2022/10/30 08:17:16;;;;;;;12.25;11.15;;;;;;;;;;5209613;28;20111;-71
2022/10/30 08:19:47;;;;;;;18.55;12.40;;;;;;;;;;5226145;28;20013;-70
2022/10/30 08:22:17;;;;;;;13.77;12.32;;;;;;;;;;5209864;28;20542;-70
2022/10/30 08:24:47;;;;;;;14.45;11.57;;;;;;;;;;5209477;28;20461;-70
2022/10/30 08:27:17;;;;;;;13.13;11.65;;;;;;;;;;5209454;28;20064;-71
2022/10/30 08:29:48;;;;;;;15.52;10.38;;;;;;;;;;5227065;28;20021;-70
2022/10/30 08:32:18;;;;;;;19.88;10.50;;;;;;;;;;5209617;28;20027;-70
2022/10/30 08:34:49;;;;;;;15.77;11.90;;;;;;;;;;5209075;28;20401;-71
2022/10/30 08:37:19;;;;;;;11.52;10.50;;;;;;;;;;5209292;28;20477;-70
2022/10/30 08:39:49;;;;;;;11.38;10.43;;;;;;;;;;5208603;28;20017;-72
2022/10/30 08:42:19;;;;;;;10.25;9.02;;;;;;;;;;5208719;28;20539;-71
2022/10/30 08:44:50;;;;;;;10.48;9.68;;;;;;;;;;5224609;28;20025;-70
2022/10/30 08:47:20;;;;;;;17.48;8.98;;;;;;;;;;5209164;28;20048;-68
2022/10/30 08:49:50;;;;;;;9.20;8.50;;;;;;;;;;5225291;28;20108;-68
2022/10/30 08:52:21;;;;;;;7.82;7.22;;;;;;;;;;5225863;28;20310;-69
2022/10/30 08:54:51;;;;;;;12.23;8.50;;;;;;;;;;5225982;28;20025;-68
2022/10/30 08:57:21;;;;;;;10.23;9.30;;;;;;;;;;5224444;28;20021;-68
2022/10/30 08:59:51;;;;;;;12.73;9.15;;;;;;;;;;5208681;28;20047;-68
2022/10/30 09:02:22;;;;;;;10.82;8.88;;;;;;;;;;5225474;28;20013;-71
2022/10/30 09:04:52;;;;;;;8.77;7.90;;;;;;;;;;5226150;28;20538;-70
2022/10/30 09:07:22;;;;;;;12.00;7.35;;;;;;;;;;5226191;28;20384;-69
2022/10/30 09:09:52;;;;;;;9.27;7.75;;;;;;;;;;5223329;28;20214;-68
2022/10/30 09:12:23;;;;;;;12.35;8.15;;;;;;;;;;5225086;28;20473;-69
2022/10/30 09:14:53;;;;;;;10.80;7.47;;;;;;;;;;5225208;28;20447;-67
2022/10/30 09:17:23;;;;;;;11.15;7.32;;;;;;;;;;5224437;28;20037;-68
2022/10/30 09:19:53;;;;;;;13.07;7.93;;;;;;;;;;5224730;28;20493;-68
2022/10/30 09:22:24;;;;;;;8.85;7.95;;;;;;;;;;5208441;28;20017;-68
2022/10/30 09:24:54;;;;;;;13.32;9.13;;;;;;;;;;5224566;28;20029;-68
2022/10/30 09:27:24;;;;;;;11.25;6.78;;;;;;;;;;5208148;28;20032;-65
2022/10/30 09:29:55;;;;;;;9.48;7.60;;;;;;;;;;5207921;28;20040;-66
2022/10/30 09:32:25;;;;;;;9.63;8.38;;;;;;;;;;5224582;28;20164;-67
2022/10/30 09:34:55;;;;;;;16.48;8.30;;;;;;;;;;5207577;28;20029;-68
2022/10/30 09:37:26;;;;;;;8.65;6.38;;;;;;;;;;5224753;28;20067;-67
2022/10/30 09:39:56;;;;;;;10.00;8.63;;;;;;;;;;5224353;28;20396;-68
2022/10/30 09:42:26;;;;;;;9.27;7.30;;;;;;;;;;5207901;28;20059;-68
2022/10/30 09:45:05;;;;;;;9.85;7.53;;;;;;;;;;5207082;28;20437;-68
2022/10/30 09:47:35;;;;;;;10.50;8.70;;;;;;;;;;5207419;28;20128;-64
2022/10/30 09:50:18;;;;;;;8.13;6.93;;;;;;;;;;5207617;28;20120;-65
2022/10/30 09:53:04;;;;;;;14.95;8.73;;;;;;;;;;5208169;28;20017;-65
2022/10/30 09:55:34;;;;;;;9.32;8.52;;;;;;;;;;5207544;28;20039;-66
2022/10/30 09:58:14;;;;;;;9.80;9.13;;;;;;;;;;5207299;28;20476;-65
2022/10/30 10:00:51;;;;;;;9.25;8.35;;;;;;;;;;5207179;28;20025;-65
2022/10/30 10:03:27;;;;;;;8.75;7.32;;;;;;;;;;5225390;28;20039;-66
2022/10/30 10:05:58;;;;;;;9.57;7.93;;;;;;;;;;5207215;28;20392;-66
2022/10/30 10:08:40;;;;;;;10.68;8.27;;;;;;;;;;5207631;28;20032;-65
2022/10/30 10:11:34;;;;;;;12.40;9.18;;;;;;;;;;5207608;28;20025;-64
2022/10/30 10:14:13;;;;;;;7.20;6.60;;;;;;;;;;5206980;28;20070;-66
2022/10/30 10:16:47;;;;;;;12.20;8.32;;;;;;;;;;5224714;28;20054;-65
2022/10/30 10:19:36;;;;;;;12.75;10.95;;;;;;;;;;5207561;28;20013;-66
2022/10/30 10:22:26;;;;;;;7.25;6.75;;;;;;;;;;5207787;28;20090;-67
2022/10/30 10:24:57;;;;;;;8.85;5.70;;;;;;;;;;5188457;28;20029;-69
2022/10/30 10:27:46;;;;;;;9.98;7.15;;;;;;;;;;5207645;28;20025;-67
2022/10/30 10:30:19;;;;;;;6.93;6.32;;;;;;;;;;5207215;28;20035;-66
2022/10/30 10:32:59;;;;;;;7.82;6.53;;;;;;;;;;5207619;28;20045;-67
2022/10/30 10:35:29;;;;;;;15.27;7.82;;;;;;;;;;5206837;28;20031;-67
2022/10/30 10:38:07;;;;;;;8.65;7.85;;;;;;;;;;5206615;28;20025;-67
2022/10/30 10:40:44;;;;;;;6.85;6.25;;;;;;;;;;5224762;28;20017;-68
2022/10/30 10:43:17;;;;;;;6.88;6.18;;;;;;;;;;5207278;28;20079;-68
2022/10/30 10:45:53;;;;;;;11.45;6.18;;;;;;;;;;5207319;28;20082;-67
2022/10/30 10:48:30;;;;;;;12.80;6.45;;;;;;;;;;5225174;28;20456;-68
2022/10/30 10:51:02;;;;;;;6.25;5.70;;;;;;;;;;5207020;28;20507;-67
2022/10/30 10:53:35;;;;;;;7.15;6.63;;;;;;;;;;5206796;28;20082;-67
2022/10/30 10:56:06;;;;;;;6.63;6.03;;;;;;;;;;5206771;28;20024;-67
2022/10/30 10:58:57;;;;;;;8.35;6.00;;;;;;;;;;5225026;28;20443;-68
2022/10/30 11:01:41;;;;;;;5.97;5.47;;;;;;;;;;5206568;28;20029;-67
2022/10/30 11:04:12;;;;;;;13.93;6.90;;;;;;;;;;5206255;28;20407;-67
2022/10/30 11:06:45;;;;;;;10.88;8.60;;;;;;;;;;5207132;28;20120;-68
2022/10/30 11:09:20;;;;;;;10.77;7.30;;;;;;;;;;5209615;28;20480;-67
2022/10/30 11:11:51;;;;;;;6.85;6.22;;;;;;;;;;5211141;28;20055;-66
2022/10/30 11:14:23;;;;;;;6.00;5.28;;;;;;;;;;5210268;28;20025;-68
2022/10/30 11:16:56;;;;;;;8.75;6.20;;;;;;;;;;5210550;28;20049;-67
2022/10/30 11:19:28;;;;;;;9.38;7.53;;;;;;;;;;5210720;28;20021;-66
2022/10/30 11:21:59;;;;;;;13.85;6.05;;;;;;;;;;5210913;28;20314;-68
2022/10/30 11:24:31;;;;;;;12.45;5.30;;;;;;;;;;5210386;28;20025;-66
2022/10/30 11:27:21;;;;;;;6.53;5.93;;;;;;;;;;5210446;28;20496;-67
2022/10/30 11:29:55;;;;;;;7.47;6.78;;;;;;;;;;5193173;28;20405;-67
2022/10/30 11:32:27;;;;;;;7.55;6.75;;;;;;;;;;5210562;28;20044;-66
2022/10/30 11:35:00;;;;;;;10.35;7.03;;;;;;;;;;5210116;28;20017;-67
2022/10/30 11:37:32;;;;;;;9.23;5.93;;;;;;;;;;5210047;28;20115;-66
2022/10/30 11:40:15;;;;;;;14.82;7.32;;;;;;;;;;5210056;28;20043;-67
2022/10/30 11:42:54;;;;;;;9.15;6.15;;;;;;;;;;5228085;28;20440;-67
2022/10/30 11:45:33;;;;;;;7.82;6.43;;;;;;;;;;5210066;28;20021;-68
2022/10/30 11:48:08;;;;;;;7.75;6.30;;;;;;;;;;5210034;28;20035;-67
2022/10/30 11:50:44;;;;;;;7.10;6.60;;;;;;;;;;5227281;28;20428;-67
2022/10/30 11:53:29;;;;;;;7.85;6.60;;;;;;;;;;5209905;28;20014;-66
2022/10/30 11:56:00;;;;;;;9.65;6.63;;;;;;;;;;5209967;28;20060;-71
2022/10/30 11:58:35;;;;;;;9.20;6.75;;;;;;;;;;5208013;28;20133;-67
2022/10/30 12:01:11;;;;;;;7.75;6.65;;;;;;;;;;5227556;28;20029;-67
2022/10/30 12:03:42;;;;;;;8.75;7.88;;;;;;;;;;5227490;28;20060;-67
2022/10/30 12:06:18;;;;;;;7.63;6.93;;;;;;;;;;5209745;28;20040;-67
2022/10/30 12:08:58;;;;;;;7.78;7.10;;;;;;;;;;5209466;28;20031;-66
2022/10/30 12:11:28;;;;;;;;;;;;;;;;;;5209814;28;20498;-66
2022/10/30 12:13:59;;;;;;;8.73;6.43;;;;;;;;;;5209176;28;20125;-67
2022/10/30 12:16:29;;;;;;;8.32;7.57;;;;;;;;;;5209500;28;20512;-67
2022/10/30 12:18:59;;;;;;;13.20;8.82;;;;;;;;;;5227259;28;20024;-67
2022/10/30 12:21:35;;;;;;;16.38;7.45;;;;;;;;;;5208273;28;20020;-67
2022/10/30 12:24:08;;;;;;;7.63;6.10;;;;;;;;;;5209167;28;20024;-66
2022/10/30 12:26:38;;;;;;;9.20;7.30;;;;;;;;;;5209155;28;20054;-66
2022/10/30 12:29:13;;;;;;;6.15;5.65;;;;;;;;;;5209052;28;20043;-66
2022/10/30 12:31:48;;;;;;;8.10;7.32;;;;;;;;;;5226861;28;20036;-68
2022/10/30 12:34:41;;;;;;;6.20;5.00;;;;;;;;;;5208629;28;20013;-67
2022/10/30 12:37:15;;;;;;;11.55;7.20;;;;;;;;;;5214322;28;20516;-67
2022/10/30 12:39:54;;;;;;;6.60;6.00;;;;;;;;;;5209874;28;20032;-67
2022/10/30 12:42:25;;;;;;;6.93;6.25;;;;;;;;;;5209701;28;20021;-67
2022/10/30 12:45:07;;;;;;;7.47;6.80;;;;;;;;;;5226543;28;20362;-69
2022/10/30 12:47:37;;;;;;;9.00;6.00;;;;;;;;;;5207335;28;20032;-66
2022/10/30 12:50:17;;;;;;;11.43;7.22;;;;;;;;;;5207746;28;20477;-67
2022/10/30 12:52:47;;;;;;;;;;;;;;;;;;5226176;28;20566;-66
2022/10/30 12:55:17;;;;;;;17.43;7.30;;;;;;;;;;5260818;22;20392;-85
2022/10/30 12:57:48;;;;;;;11.38;7.95;;;;;;;;;;5279465;28;20004;-83
2022/10/30 13:00:18;;;;;;;9.18;6.57;;;;;;;;;;5249797;28;20021;-83
2022/10/30 13:02:54;;;;;;;11.32;7.00;;;;;;;;;;5279214;28;20144;-82
2022/10/30 13:05:28;;;;;;;9.07;5.85;;;;;;;;;;5259304;28;20025;-82
2022/10/30 13:08:13;;;;;;;5.93;5.40;;;;;;;;;;5260740;28;20027;-85
2022/10/30 13:10:49;;;;;;;8.15;6.80;;;;;;;;;;5262071;28;20030;-82
2022/10/30 13:13:28;;;;;;;8.73;6.68;;;;;;;;;;5261842;28;20036;-83
2022/10/30 13:16:00;;;;;;;8.85;5.45;;;;;;;;;;5262515;28;20021;-84
2022/10/30 13:18:31;;;;;;;21.98;7.78;;;;;;;;;;5245151;28;20025;-81
2022/10/30 13:21:11;;;;;;;14.55;6.45;;;;;;;;;;5260288;28;20009;-81
2022/10/30 13:23:53;;;;;;;8.23;7.57;;;;;;;;;;5261684;28;20166;-81
2022/10/30 13:26:36;;;;;;;10.73;6.68;;;;;;;;;;5242923;28;20021;-80
2022/10/30 13:29:06;;;;;;;11.35;8.55;;;;;;;;;;5259887;28;20018;-83
2022/10/30 13:31:42;;;;;;;10.10;7.27;;;;;;;;;;5258160;28;20035;-83
2022/10/30 13:34:31;;;;;;;6.22;5.72;;;;;;;;;;5257160;28;20033;-83
2022/10/30 13:37:20;;;;;;;9.40;5.35;;;;;;;;;;5259632;28;20031;-83
2022/10/30 13:40:13;;;;;;;10.63;6.03;;;;;;;;;;5259161;28;20219;-81
2022/10/30 13:42:46;;;;;;;11.18;7.70;;;;;;;;;;5258343;28;20424;-82
2022/10/30 13:45:19;;;;;;;6.43;5.72;;;;;;;;;;5257139;28;20367;-82
2022/10/30 13:48:01;;;;;;;9.95;6.78;;;;;;;;;;5240355;28;20059;-81
2022/10/30 13:50:50;;;;;;;11.10;6.63;;;;;;;;;;5257186;28;20085;-83
2022/10/30 13:53:24;;;;;;;6.40;5.82;;;;;;;;;;5256838;28;20072;-83
2022/10/30 13:55:55;;;;;;;7.60;6.45;;;;;;;;;;5257698;28;20029;-83
2022/10/30 13:58:31;;;;;;;10.85;7.63;;;;;;;;;;5257134;28;20059;-81
2022/10/30 14:01:05;;;;;;;8.85;6.40;;;;;;;;;;5239368;28;20031;-80
2022/10/30 14:03:51;;;;;;;11.93;6.65;;;;;;;;;;5238217;28;20066;-82
2022/10/30 14:06:21;;;;;;;8.32;7.60;;;;;;;;;;5257441;28;20343;-81
2022/10/30 14:09:03;;;;;;;11.82;7.53;;;;;;;;;;5256547;28;20046;-80
2022/10/30 14:11:33;;;;;;;19.13;7.05;;;;;;;;;;5257656;28;20080;-81
2022/10/30 14:14:04;;;;;;;10.13;5.38;;;;;;;;;;5253969;28;20051;-82
2022/10/30 14:16:40;;;;;;;7.03;6.40;;;;;;;;;;5254208;28;20009;-82
2022/10/30 14:19:14;;;;;;;8.15;6.68;;;;;;;;;;5253976;28;20095;-81
2022/10/30 14:21:53;;;;;;;8.45;7.72;;;;;;;;;;5254205;28;20016;-82
2022/10/30 14:24:24;;;;;;;9.93;7.63;;;;;;;;;;5252991;28;20025;-82
2022/10/30 14:27:08;;;;;;;9.30;8.30;;;;;;;;;;5234606;28;20470;-82
2022/10/30 14:29:49;;;;;;;8.65;6.32;;;;;;;;;;5253382;28;20025;-83
2022/10/30 14:32:22;;;;;;;8.02;7.22;;;;;;;;;;5252946;28;20025;-83
2022/10/30 14:34:53;;;;;;;8.98;5.85;;;;;;;;;;5233396;22;20175;-67
2022/10/30 14:37:26;;;;;;;7.47;6.88;;;;;;;;;;5186547;28;20109;-65
2022/10/30 14:40:16;;;;;;;5.57;5.18;;;;;;;;;;5185808;28;20022;-67
2022/10/30 14:42:52;;;;;;;8.52;7.68;;;;;;;;;;5191449;28;20074;-66
2022/10/30 14:45:26;;;;;;;12.82;6.80;;;;;;;;;;5204675;28;20535;-66
2022/10/30 14:48:10;;;;;;;7.00;5.40;;;;;;;;;;5207381;28;20017;-66
2022/10/30 14:50:58;;;;;;;11.77;6.55;;;;;;;;;;5206894;28;20052;-67
2022/10/30 14:53:28;;;;;;;5.78;5.28;;;;;;;;;;5206723;28;20428;-66
2022/10/30 14:56:03;;;;;;;9.75;7.80;;;;;;;;;;5213573;28;20032;-66
2022/10/30 14:58:35;;;;;;;6.90;6.32;;;;;;;;;;5231621;28;20503;-67
2022/10/30 15:01:08;;;;;;;7.97;7.32;;;;;;;;;;5231266;28;20012;-66
2022/10/30 15:03:45;;;;;;;10.65;6.13;;;;;;;;;;5231042;28;20028;-64
2022/10/30 15:06:34;;;;;;;7.45;5.65;;;;;;;;;;5249135;28;20107;-66